Time;durP1;ratioP1;P1;durP2;ratioP2;P2;SDS_P1;SDS_P2;PMS_P1;PMS_P2;Temp;Humidity;BMP_temperature;BMP_pressure;BME280_temperature;BME280_humidity;BME280_pressure;Samples;Min_cycle;Max_cycle;Signal;HPM_P1;HPM_P2
2021/06/03 00:04:54;;;;;;;3.65;1.98;;;19.50;99.90;;;;;;12391259;28;20050;-43
2021/06/03 00:10:59;;;;;;;4.78;2.28;;;19.50;99.90;;;;;;12382976;28;20095;-43
2021/06/03 00:17:01;;;;;;;5.68;2.30;;;19.40;99.90;;;;;;12388424;28;20390;-44
2021/06/03 00:23:04;;;;;;;3.55;2.03;;;19.40;99.90;;;;;;12387064;28;20081;-44
2021/06/03 00:29:09;;;;;;;4.40;2.10;;;19.30;99.90;;;;;;12390401;28;20139;-43
2021/06/03 00:35:11;;;;;;;6.03;2.38;;;19.10;99.90;;;;;;12384561;28;20086;-44
2021/06/03 00:41:14;;;;;;;5.00;2.30;;;19.00;99.90;;;;;;12386684;28;20073;-43
2021/06/03 00:47:16;;;;;;;2.90;1.60;;;19.00;99.90;;;;;;12387509;28;20045;-43
2021/06/03 00:53:19;;;;;;;3.88;2.38;;;19.10;99.90;;;;;;12390976;28;20050;-43
2021/06/03 00:59:21;;;;;;;8.57;2.13;;;19.10;99.90;;;;;;12386522;28;20054;-43
2021/06/03 01:05:26;;;;;;;5.75;2.20;;;19.10;99.90;;;;;;12385356;28;20080;-43
2021/06/03 01:11:43;;;;;;;4.28;1.95;;;19.00;99.90;;;;;;12381646;28;20501;-44
2021/06/03 01:17:46;;;;;;;3.97;2.53;;;19.00;99.90;;;;;;12387070;28;20047;-43
2021/06/03 01:24:16;;;;;;;5.57;2.08;;;19.10;99.90;;;;;;12386766;28;20050;-46
2021/06/03 01:30:28;;;;;;;4.47;2.00;;;19.10;99.90;;;;;;12385297;28;20066;-44
2021/06/03 01:36:31;;;;;;;6.57;2.20;;;19.00;99.90;;;;;;12392323;28;20735;-43
2021/06/03 01:42:33;;;;;;;3.10;2.08;;;19.00;99.90;;;;;;12393906;28;20099;-44
2021/06/03 01:48:35;;;;;;;5.25;2.42;;;18.90;99.90;;;;;;12401295;28;20103;-44
2021/06/03 01:54:38;;;;;;;7.55;2.33;;;18.90;99.90;;;;;;12393461;28;20073;-45
2021/06/03 02:00:42;;;;;;;5.30;2.42;;;18.80;99.90;;;;;;12401338;28;20050;-43
2021/06/03 02:06:45;;;;;;;5.35;2.15;;;18.70;99.90;;;;;;12398124;28;20061;-44
2021/06/03 02:12:56;;;;;;;4.95;2.25;;;18.70;99.90;;;;;;12391160;28;20648;-47
2021/06/03 02:18:58;;;;;;;8.50;2.30;;;18.70;99.90;;;;;;12394642;28;20058;-45
2021/06/03 02:25:00;;;;;;;5.68;2.10;;;18.70;99.90;;;;;;12392262;28;20058;-43
2021/06/03 02:31:02;;;;;;;6.82;2.50;;;18.60;99.90;;;;;;12389889;28;20054;-45
2021/06/03 02:37:09;;;;;;;4.00;2.40;;;18.50;99.90;;;;;;12396016;28;20061;-44
2021/06/03 02:43:11;;;;;;;4.82;2.25;;;18.50;99.90;;;;;;12392367;28;20452;-44
2021/06/03 02:49:13;;;;;;;3.45;2.15;;;18.40;99.90;;;;;;12395131;28;21317;-43
2021/06/03 02:55:18;;;;;;;6.72;2.13;;;18.30;99.90;;;;;;12395482;28;20097;-43
2021/06/03 03:01:20;;;;;;;3.40;2.25;;;18.30;99.90;;;;;;12385142;28;20054;-43
2021/06/03 03:07:22;;;;;;;5.68;2.38;;;18.20;99.90;;;;;;12393880;28;20333;-44
2021/06/03 03:13:25;;;;;;;4.22;2.25;;;18.10;99.90;;;;;;12391064;28;20058;-44
2021/06/03 03:19:27;;;;;;;5.18;2.17;;;18.10;99.90;;;;;;12390449;28;20057;-44
2021/06/03 03:25:29;;;;;;;3.50;2.28;;;18.20;99.90;;;;;;12388996;28;20066;-45
2021/06/03 03:31:34;;;;;;;5.30;2.20;;;18.20;99.90;;;;;;12389164;28;20053;-47
2021/06/03 03:37:41;;;;;;;8.10;2.25;;;18.20;99.90;;;;;;12397020;28;20045;-43
2021/06/03 03:43:43;;;;;;;3.90;2.33;;;18.30;99.90;;;;;;12395708;28;20180;-44
2021/06/03 03:49:44;;;;;;;4.55;2.28;;;18.30;99.90;;;;;;12389699;28;20050;-43
2021/06/03 03:55:46;;;;;;;3.75;2.13;;;18.20;99.90;;;;;;12383416;28;20076;-44
2021/06/03 04:01:52;;;;;;;5.35;2.40;;;18.40;99.90;;;;;;12383699;28;20057;-46
2021/06/03 04:07:55;;;;;;;5.82;2.60;;;18.70;99.90;;;;;;12380048;28;20133;-44
2021/06/03 04:13:57;;;;;;;6.55;2.67;;;18.30;99.90;;;;;;12385145;28;20486;-43
2021/06/03 04:19:59;;;;;;;3.08;2.20;;;18.20;99.90;;;;;;12382757;28;20231;-44
2021/06/03 04:26:01;;;;;;;4.10;2.38;;;18.30;99.90;;;;;;12385285;28;20061;-43
2021/06/03 04:32:03;;;;;;;4.53;2.30;;;18.20;99.90;;;;;;12385661;28;20510;-45
2021/06/03 04:38:05;;;;;;;6.50;2.38;;;18.20;99.90;;;;;;12381484;28;20050;-44
2021/06/03 04:44:07;;;;;;;6.93;2.45;;;18.40;99.90;;;;;;12377123;28;20083;-43
2021/06/03 04:50:11;;;;;;;3.85;2.13;;;18.40;99.90;;;;;;12386165;28;20088;-43
2021/06/03 04:56:13;;;;;;;6.15;2.60;;;18.60;99.90;;;;;;12378030;28;20126;-42
2021/06/03 05:02:16;;;;;;;6.85;2.33;;;18.60;99.90;;;;;;12370824;28;20049;-44
2021/06/03 05:08:18;;;;;;;3.88;2.10;;;18.80;99.90;;;;;;12382836;28;20049;-47
2021/06/03 05:14:20;;;;;;;3.83;1.95;;;18.90;99.90;;;;;;12386986;28;20046;-43
2021/06/03 05:20:24;;;;;;;4.28;2.10;;;19.10;99.90;;;;;;12378448;28;20054;-43
2021/06/03 05:26:26;;;;;;;6.57;2.13;;;19.10;99.90;;;;;;12384106;28;20169;-43
2021/06/03 05:32:28;;;;;;;4.78;2.53;;;19.20;99.90;;;;;;12382133;28;20088;-43
2021/06/03 05:38:30;;;;;;;5.50;2.08;;;19.20;99.90;;;;;;12387917;28;20061;-44
2021/06/03 05:44:32;;;;;;;5.93;2.20;;;19.40;99.90;;;;;;12382358;28;20054;-44
2021/06/03 05:50:35;;;;;;;4.45;2.30;;;19.20;99.90;;;;;;12383508;28;20050;-50
2021/06/03 05:56:37;;;;;;;6.30;2.30;;;19.10;99.90;;;;;;12380370;28;20054;-44
2021/06/03 06:02:56;;;;;;;7.65;2.50;;;19.10;99.90;;;;;;12377955;28;20050;-45
2021/06/03 06:09:05;;;;;;;3.72;2.28;;;19.00;99.90;;;;;;12379354;28;20162;-43
2021/06/03 06:15:07;;;;;;;4.82;2.20;;;19.10;99.90;;;;;;12382876;28;20561;-44
2021/06/03 06:21:10;;;;;;;6.07;2.20;;;19.30;99.90;;;;;;12383559;28;20050;-46
2021/06/03 06:27:12;;;;;;;5.73;2.03;;;19.70;99.90;;;;;;12375508;28;20140;-46
2021/06/03 06:33:14;;;;;;;4.88;2.28;;;20.10;99.90;;;;;;12396384;28;20058;-45
2021/06/03 06:39:17;;;;;;;6.15;2.20;;;20.30;99.90;;;;;;12393940;28;20095;-44
2021/06/03 06:45:24;;;;;;;5.00;2.20;;;20.40;99.90;;;;;;12390001;28;20474;-44
2021/06/03 06:51:26;;;;;;;6.40;2.40;;;20.50;99.90;;;;;;12395852;28;20089;-43
2021/06/03 06:57:28;;;;;;;3.85;2.15;;;20.60;99.90;;;;;;12387718;28;20058;-43
2021/06/03 07:03:30;;;;;;;5.82;3.53;;;20.40;99.90;;;;;;12390168;28;20057;-44
2021/06/03 07:09:32;;;;;;;5.05;2.40;;;20.30;99.90;;;;;;12393667;28;20457;-45
2021/06/03 07:15:34;;;;;;;4.38;2.17;;;20.30;99.90;;;;;;12396526;28;20092;-44
2021/06/03 07:21:36;;;;;;;3.63;2.10;;;20.50;99.90;;;;;;12388604;28;20053;-45
2021/06/03 07:27:39;;;;;;;4.00;2.22;;;20.70;99.90;;;;;;12383844;28;20654;-46
2021/06/03 07:33:41;;;;;;;5.55;2.13;;;21.10;99.90;;;;;;12386399;28;20397;-43
2021/06/03 07:39:43;;;;;;;5.57;2.35;;;21.40;99.90;;;;;;12390050;28;20050;-45
2021/06/03 07:45:45;;;;;;;5.18;2.40;;;21.50;99.90;;;;;;12382808;28;20050;-45
2021/06/03 07:51:47;;;;;;;3.70;2.40;;;21.40;99.90;;;;;;12384904;28;20038;-45
2021/06/03 07:57:52;;;;;;;6.10;2.25;;;21.30;99.90;;;;;;12390361;28;20054;-44
2021/06/03 08:03:55;;;;;;;3.63;2.35;;;21.30;99.90;;;;;;12386427;28;20045;-44
2021/06/03 08:09:57;;;;;;;5.47;2.35;;;21.40;99.90;;;;;;12389492;28;20058;-44
2021/06/03 08:15:59;;;;;;;4.03;2.45;;;21.60;99.90;;;;;;12382976;28;20129;-44
2021/06/03 08:22:03;;;;;;;4.60;2.25;;;21.80;99.90;;;;;;12388645;28;20141;-44
2021/06/03 08:28:05;;;;;;;4.17;2.33;;;21.90;99.90;;;;;;12391259;28;20104;-43
2021/06/03 08:34:07;;;;;;;4.70;2.08;;;22.40;99.90;;;;;;12385865;28;20309;-43
2021/06/03 08:40:10;;;;;;;3.80;2.08;;;22.70;99.90;;;;;;12380132;28;20096;-44
2021/06/03 08:46:12;;;;;;;3.58;1.77;;;22.80;99.90;;;;;;12388167;28;20136;-44
2021/06/03 08:52:14;;;;;;;3.03;1.77;;;22.90;99.90;;;;;;12381666;28;20721;-44
2021/06/03 08:58:19;;;;;;;4.38;2.08;;;23.00;99.90;;;;;;12378565;28;20054;-44
2021/06/03 09:04:20;;;;;;;3.85;2.00;;;23.20;99.90;;;;;;12380085;28;20054;-44
2021/06/03 09:10:28;;;;;;;4.65;2.35;;;23.50;99.90;;;;;;12389185;28;20050;-44
2021/06/03 09:16:32;;;;;;;3.60;1.92;;;23.70;99.90;;;;;;12382087;28;20053;-44
2021/06/03 09:22:42;;;;;;;4.10;1.90;;;24.00;99.90;;;;;;12380126;28;20137;-44
2021/06/03 09:28:46;;;;;;;5.90;2.28;;;24.10;99.90;;;;;;12383676;28;20041;-44
2021/06/03 09:34:55;;;;;;;4.07;1.85;;;24.30;99.90;;;;;;12377323;28;20150;-45
2021/06/03 09:40:58;;;;;;;3.17;1.80;;;24.30;99.90;;;;;;12377822;28;20058;-44
2021/06/03 09:47:04;;;;;;;4.95;1.95;;;24.60;99.90;;;;;;12388140;28;20375;-46
2021/06/03 09:53:06;;;;;;;3.88;1.75;;;24.80;99.90;;;;;;12384860;28;20185;-45
2021/06/03 09:59:15;;;;;;;3.35;2.00;;;25.10;99.90;;;;;;12379772;28;20054;-44
2021/06/03 10:05:22;;;;;;;3.78;2.13;;;25.30;99.90;;;;;;12375531;28;20038;-44
2021/06/03 10:11:48;;;;;;;5.20;2.00;;;25.20;99.90;;;;;;12385514;28;20084;-44
2021/06/03 10:17:58;;;;;;;5.57;1.83;;;24.80;99.90;;;;;;12389419;28;20049;-44
2021/06/03 10:24:00;;;;;;;3.13;2.28;;;24.80;99.90;;;;;;12391821;28;20104;-45
2021/06/03 10:30:17;;;;;;;4.00;1.90;;;24.90;99.90;;;;;;12392518;28;20057;-43
2021/06/03 10:36:19;;;;;;;3.53;2.00;;;25.00;99.90;;;;;;12390145;28;20116;-46
2021/06/03 10:42:22;;;;;;;3.95;2.30;;;25.10;99.90;;;;;;12387251;28;20057;-44
2021/06/03 10:48:25;;;;;;;5.05;2.15;;;25.10;99.90;;;;;;12385850;28;20060;-44
2021/06/03 10:54:48;;;;;;;4.50;2.08;;;25.00;99.90;;;;;;12391452;28;20057;-44
2021/06/03 11:01:01;;;;;;;4.30;2.10;;;24.90;99.90;;;;;;12387829;28;20050;-47
2021/06/03 11:07:04;;;;;;;3.88;2.38;;;25.30;99.90;;;;;;12388284;28;20100;-43
2021/06/03 11:13:15;;;;;;;7.97;2.50;;;25.50;99.90;;;;;;12387763;28;20169;-44
2021/06/03 11:19:27;;;;;;;3.47;2.08;;;25.90;99.90;;;;;;12384189;28;20477;-46
2021/06/03 11:25:37;;;;;;;4.70;2.30;;;25.90;99.90;;;;;;12391759;28;20093;-44
2021/06/03 11:31:46;;;;;;;9.02;2.42;;;26.30;99.90;;;;;;12386185;28;20076;-46
2021/06/03 11:37:49;;;;;;;6.07;2.33;;;26.60;99.90;;;;;;12384852;28;20410;-44
2021/06/03 11:44:14;;;;;;;3.78;2.22;;;27.40;99.90;;;;;;12382327;28;20062;-44
2021/06/03 11:50:16;;;;;;;3.47;2.20;;;28.30;99.90;;;;;;12386122;28;20050;-46
2021/06/03 11:56:19;;;;;;;4.13;2.00;;;28.30;99.90;;;;;;12368709;28;20081;-43
2021/06/03 12:02:35;;;;;;;3.22;1.73;;;28.90;99.90;;;;;;12385407;28;20050;-45
2021/06/03 12:08:52;;;;;;;7.28;1.70;;;28.20;99.90;;;;;;12380380;28;20099;-44
2021/06/03 12:14:54;;;;;;;2.67;1.73;;;28.60;99.90;;;;;;12381078;28;20054;-43
2021/06/03 12:20:56;;;;;;;5.63;2.57;;;27.60;99.90;;;;;;12387912;28;20096;-43
2021/06/03 12:27:02;;;;;;;2.95;1.45;;;26.90;99.90;;;;;;12384504;28;20304;-43
2021/06/03 12:33:24;;;;;;;2.70;1.80;;;26.40;99.90;;;;;;12380040;28;20050;-45
2021/06/03 12:39:36;;;;;;;17.27;2.05;;;26.00;99.90;;;;;;12380999;28;20046;-44
2021/06/03 12:45:41;;;;;;;8.27;1.73;;;22.90;99.90;;;;;;12376032;28;20057;-44
2021/06/03 12:51:57;;;;;;;3.35;1.60;;;20.80;99.90;;;;;;12381711;28;20057;-44
2021/06/03 12:58:08;;;;;;;6.50;1.83;;;19.90;99.90;;;;;;12379744;28;20502;-43
2021/06/03 13:04:10;;;;;;;6.22;1.85;;;19.30;99.90;;;;;;12376550;28;20099;-43
2021/06/03 13:10:20;;;;;;;10.85;2.42;;;18.40;99.90;;;;;;12383893;28;20072;-42
2021/06/03 13:16:26;;;;;;;5.53;1.90;;;16.80;99.90;;;;;;12383022;28;20081;-44
2021/06/03 13:22:31;;;;;;;4.65;1.92;;;16.50;99.90;;;;;;12381882;28;20089;-43
2021/06/03 13:28:33;;;;;;;8.60;1.80;;;16.90;99.90;;;;;;12381758;28;20090;-43
2021/06/03 13:34:41;;;;;;;3.00;1.80;;;16.90;99.90;;;;;;12383334;28;20945;-44
2021/06/03 13:40:45;;;;;;;10.23;2.00;;;17.00;99.90;;;;;;12393035;28;20058;-43
2021/06/03 13:46:47;;;;;;;4.05;1.65;;;17.00;99.90;;;;;;12386595;28;20529;-43
2021/06/03 13:52:56;;;;;;;5.00;2.00;;;17.00;99.90;;;;;;12384897;28;20038;-43
2021/06/03 13:59:11;;;;;;;7.07;2.25;;;17.20;99.90;;;;;;12391455;28;20165;-45
2021/06/03 14:05:13;;;;;;;5.55;2.47;;;17.40;99.90;;;;;;12384587;28;20058;-45
2021/06/03 14:17:34;;;;;;;5.82;1.90;;;17.70;99.90;;;;;;12396495;28;20047;-44
2021/06/03 14:23:38;;;;;;;5.70;2.50;;;17.90;99.90;;;;;;12392914;28;20069;-42
2021/06/03 14:29:46;;;;;;;;;;;18.40;99.90;;;;;;12392656;28;20458;-44
2021/06/03 14:35:50;;;;;;;4.10;2.25;;;18.40;99.90;;;;;;12392018;28;19925;-43
2021/06/03 14:41:51;;;;;;;;;;;18.40;99.90;;;;;;12391747;28;20165;-42
2021/06/03 14:47:55;;;;;;;5.07;2.65;;;18.40;99.90;;;;;;12385392;28;19966;-43
2021/06/03 14:53:57;;;;;;;;;;;18.20;99.90;;;;;;12391328;28;20058;-43
2021/06/03 15:00:00;;;;;;;10.57;3.00;;;18.00;99.90;;;;;;12382488;28;23542;-43
2021/06/03 15:06:02;;;;;;;5.65;3.08;;;17.80;99.90;;;;;;12388962;28;20049;-42
2021/06/03 15:12:05;;;;;;;4.00;2.45;;;17.90;99.90;;;;;;12379975;28;20360;-44
2021/06/03 15:18:07;;;;;;;6.90;3.28;;;17.70;99.90;;;;;;12392590;28;20786;-43
2021/06/03 15:24:09;;;;;;;4.70;2.97;;;17.70;99.90;;;;;;12388049;28;20061;-42
2021/06/03 15:30:18;;;;;;;6.32;3.17;;;17.60;99.90;;;;;;12385265;28;20050;-43
2021/06/03 15:36:19;;;;;;;5.88;3.42;;;17.50;99.90;;;;;;12384780;28;20058;-44
2021/06/03 15:42:22;;;;;;;8.48;3.60;;;17.40;99.90;;;;;;12388749;28;20050;-43
2021/06/03 15:48:25;;;;;;;5.35;3.80;;;17.40;99.90;;;;;;12387405;28;20103;-42
2021/06/03 15:54:27;;;;;;;5.75;3.42;;;17.50;99.90;;;;;;12385118;28;20061;-42
2021/06/03 16:00:31;;;;;;;6.47;3.47;;;17.40;99.90;;;;;;12386071;28;20054;-43
2021/06/03 16:06:33;;;;;;;;;;;17.40;99.90;;;;;;12385439;28;20049;-43
2021/06/03 16:12:35;;;;;;;9.00;3.70;;;17.50;99.90;;;;;;12382876;28;20401;-42
2021/06/03 16:18:37;;;;;;;6.95;3.25;;;17.50;99.90;;;;;;12390854;28;20054;-43
2021/06/03 16:24:39;;;;;;;4.78;3.30;;;17.60;99.90;;;;;;12382929;28;20115;-43
2021/06/03 16:30:41;;;;;;;9.15;4.20;;;17.60;99.90;;;;;;12392027;28;20137;-43
2021/06/03 16:36:43;;;;;;;8.35;3.33;;;17.70;99.90;;;;;;12388003;28;20050;-42
2021/06/03 16:42:45;;;;;;;5.35;3.55;;;17.70;99.90;;;;;;12389399;28;20111;-43
2021/06/03 16:48:47;;;;;;;4.75;3.65;;;17.70;99.90;;;;;;12388444;28;20128;-43
2021/06/03 16:54:49;;;;;;;4.15;3.50;;;17.70;99.90;;;;;;12385662;28;20442;-43
2021/06/03 17:00:55;;;;;;;5.78;3.20;;;17.70;99.90;;;;;;12390445;28;20049;-43
2021/06/03 17:06:56;;;;;;;7.90;4.13;;;17.60;99.90;;;;;;12388936;28;20107;-43
2021/06/03 17:12:59;;;;;;;6.70;3.65;;;17.60;99.90;;;;;;12385782;28;20517;-43
2021/06/03 17:19:00;;;;;;;5.60;3.50;;;17.50;99.90;;;;;;12381162;28;20092;-42
2021/06/03 17:25:05;;;;;;;5.38;3.97;;;17.50;99.90;;;;;;12388361;28;20057;-43
2021/06/03 17:31:09;;;;;;;5.70;3.83;;;17.60;99.90;;;;;;12388918;28;20544;-43
2021/06/03 17:37:12;;;;;;;5.53;3.95;;;17.90;99.90;;;;;;12387440;28;20053;-43
2021/06/03 17:43:19;;;;;;;12.90;5.15;;;18.00;99.90;;;;;;12384861;28;20499;-42
2021/06/03 17:49:21;;;;;;;8.68;5.18;;;18.00;99.90;;;;;;12389813;28;20152;-43
2021/06/03 17:55:25;;;;;;;7.78;4.70;;;17.90;99.90;;;;;;12389535;28;20139;-43
2021/06/03 18:01:27;;;;;;;7.20;5.00;;;17.80;99.90;;;;;;12377791;28;20529;-42
2021/06/03 18:07:30;;;;;;;6.88;4.35;;;17.80;99.90;;;;;;12379993;28;20502;-42
2021/06/03 18:13:31;;;;;;;8.65;4.70;;;17.70;99.90;;;;;;12381695;28;20107;-43
2021/06/03 18:19:33;;;;;;;6.85;4.90;;;17.50;99.90;;;;;;12378992;28;20050;-44
2021/06/03 18:25:37;;;;;;;6.97;5.13;;;17.40;99.90;;;;;;12388198;28;20091;-44
2021/06/03 18:31:39;;;;;;;8.00;5.00;;;17.50;99.90;;;;;;12383763;28;20702;-44
2021/06/03 18:37:41;;;;;;;8.48;5.35;;;17.40;99.90;;;;;;12394795;28;20049;-42
2021/06/03 18:43:44;;;;;;;8.57;5.50;;;17.30;99.90;;;;;;12390256;28;20066;-44
2021/06/03 18:49:46;;;;;;;7.75;6.03;;;17.20;99.90;;;;;;12392248;28;20050;-44
2021/06/03 18:55:48;;;;;;;8.80;5.57;;;17.20;99.90;;;;;;12390974;28;20141;-43
2021/06/03 19:01:50;;;;;;;10.15;5.10;;;17.30;99.90;;;;;;12395914;28;20057;-43
2021/06/03 19:07:54;;;;;;;7.28;4.85;;;17.40;99.90;;;;;;12390937;28;20154;-44
2021/06/03 19:13:57;;;;;;;7.20;5.13;;;17.30;99.90;;;;;;12389370;28;20119;-42
2021/06/03 19:19:59;;;;;;;7.43;5.33;;;17.20;99.90;;;;;;12395210;28;20715;-43
2021/06/03 19:26:01;;;;;;;8.57;5.20;;;17.30;99.90;;;;;;12385803;28;20104;-42
2021/06/03 19:32:05;;;;;;;8.75;5.00;;;17.40;99.90;;;;;;12387342;28;20050;-44
2021/06/03 19:38:08;;;;;;;10.67;6.00;;;17.10;99.90;;;;;;12389613;28;20047;-43
2021/06/03 19:44:10;;;;;;;5.87;4.47;;;16.80;99.90;;;;;;12389275;28;20177;-42
2021/06/03 19:50:18;;;;;;;8.00;5.50;;;17.10;99.90;;;;;;12389085;28;20418;-43
2021/06/03 19:56:20;;;;;;;8.73;6.45;;;17.40;99.90;;;;;;12390958;28;20112;-43
2021/06/03 20:02:21;;;;;;;10.77;6.05;;;17.30;99.90;;;;;;12387786;28;20845;-43
2021/06/03 20:08:25;;;;;;;13.23;7.50;;;17.20;99.90;;;;;;12385902;28;20163;-46
2021/06/03 20:14:26;;;;;;;9.83;5.73;;;17.30;99.90;;;;;;12388451;28;20057;-42
2021/06/03 20:20:29;;;;;;;11.82;7.43;;;17.30;99.90;;;;;;12391581;28;20058;-43
2021/06/03 20:26:31;;;;;;;11.50;7.57;;;17.20;99.90;;;;;;12385420;28;20058;-45
2021/06/03 20:32:32;;;;;;;8.57;7.63;;;17.20;99.90;;;;;;12386663;28;20050;-44
2021/06/03 20:38:34;;;;;;;17.25;8.07;;;17.20;99.90;;;;;;12387493;28;20053;-44
2021/06/03 20:44:36;;;;;;;10.68;8.00;;;17.20;99.90;;;;;;12387272;28;20162;-43
2021/06/03 20:50:41;;;;;;;9.98;8.48;;;17.00;99.90;;;;;;12389632;28;20049;-45
2021/06/03 20:56:43;;;;;;;14.38;9.35;;;17.10;99.90;;;;;;12392834;28;20054;-43
2021/06/03 21:02:47;;;;;;;13.90;9.52;;;17.10;99.90;;;;;;12388651;28;20042;-44
2021/06/03 21:08:52;;;;;;;12.43;8.88;;;17.00;99.90;;;;;;12379089;28;20187;-43
2021/06/03 21:14:54;;;;;;;16.33;10.73;;;16.90;99.90;;;;;;12387509;28;20472;-42
2021/06/03 21:20:57;;;;;;;15.13;11.50;;;16.90;99.90;;;;;;12389277;28;20536;-44
2021/06/03 21:26:59;;;;;;;23.77;12.20;;;16.90;99.90;;;;;;12390542;28;20120;-42
2021/06/03 21:33:06;;;;;;;15.18;11.55;;;16.90;99.90;;;;;;12389250;28;20108;-42
2021/06/03 21:39:08;;;;;;;14.90;12.88;;;16.80;99.90;;;;;;12391362;28;20047;-42
2021/06/03 21:45:10;;;;;;;13.82;11.43;;;16.80;99.90;;;;;;12390321;28;20100;-42
2021/06/03 21:51:12;;;;;;;15.35;10.65;;;16.70;99.90;;;;;;12389446;28;20845;-42
2021/06/03 21:57:14;;;;;;;11.63;10.43;;;16.70;99.90;;;;;;12388757;28;20096;-43
2021/06/03 22:03:24;;;;;;;15.95;12.90;;;16.50;99.90;;;;;;12393232;28;20080;-42
2021/06/03 22:09:26;;;;;;;13.50;11.60;;;16.50;99.90;;;;;;12402869;28;20058;-43
2021/06/03 22:15:28;;;;;;;16.35;10.50;;;16.40;99.90;;;;;;12394442;28;20103;-43
2021/06/03 22:21:30;;;;;;;9.18;7.88;;;16.40;99.90;;;;;;12388403;28;20054;-42
2021/06/03 22:27:32;;;;;;;12.00;7.78;;;16.40;99.90;;;;;;12397273;28;20042;-42
2021/06/03 22:33:33;;;;;;;7.07;5.85;;;16.30;99.90;;;;;;12392852;28;20423;-43
2021/06/03 22:39:35;;;;;;;8.35;5.30;;;16.30;99.90;;;;;;12394967;28;20135;-44
2021/06/03 22:45:39;;;;;;;6.20;4.40;;;16.30;99.90;;;;;;12394705;28;20053;-42
2021/06/03 22:51:42;;;;;;;7.17;4.10;;;16.20;99.90;;;;;;12394642;28;20685;-42
2021/06/03 22:57:45;;;;;;;6.78;4.30;;;16.20;99.90;;;;;;12393780;28;20062;-43
2021/06/03 23:03:48;;;;;;;5.57;3.83;;;16.20;99.90;;;;;;12391521;28;20092;-43
2021/06/03 23:09:50;;;;;;;4.68;3.92;;;16.20;99.90;;;;;;12390660;28;20131;-42
2021/06/03 23:15:53;;;;;;;4.57;4.07;;;16.30;99.90;;;;;;12391441;28;20046;-43
2021/06/03 23:21:56;;;;;;;8.68;4.95;;;16.40;99.90;;;;;;12393764;28;20050;-42
2021/06/03 23:27:59;;;;;;;6.05;4.28;;;16.50;99.90;;;;;;12391735;28;20050;-44
2021/06/03 23:34:01;;;;;;;8.95;4.70;;;16.40;99.90;;;;;;12393079;28;20054;-43
2021/06/03 23:40:04;;;;;;;7.18;4.60;;;16.40;99.90;;;;;;12399561;28;20050;-43
2021/06/03 23:46:06;;;;;;;10.57;4.77;;;16.30;99.90;;;;;;12391641;28;20046;-42
2021/06/03 23:52:08;;;;;;;10.70;5.10;;;16.20;99.90;;;;;;12390882;28;20405;-43
2021/06/03 23:58:10;;;;;;;8.13;4.78;;;16.20;99.90;;;;;;12391007;28;20107;-42
